Turrell, AR (72384)

7:23 PM CST on February 12, 2016 (GMT -0600)
River Trace | | Change Station
CLOSE
Current Station
Personal Weather Station
Location: Marion, AR
Elevation: 217 ft
Nearby Weather Stations

Elev 217 ft 35.21 °N, 90.18 °W | Updated 9 minutes ago

Clear
Clear
40.3 °F
Feels Like 40 °F
N
0.0
Wind Variable Wind from NNE

Today
High -- | Low -- °F
--% Chance of Precip.
Yesterday
High -- | Low -- °F
Precip. -- in
Pressure 30.33 in
Visibility 0.2 miles
Clouds Clear
Windchill 40 °F
Dew Point 24 °F
Humidity 53%
Rainfall 0.00 in
Snow Depth Not available.
6:51 AM 5:39 PM
Waxing Crescent, 25% visible
SPECI KAWM 130102Z AUTO 05003KT 1/4SM HZ CLR 05/M02 A3033 RMK AO2 T00501017 $
Pressure 30.33 in
Visibility 0.2 miles
Clouds Clear
Windchill 40 °F
Dew Point 24 °F
Humidity 53%
Rainfall 0.00 in
Snow Depth Not available.
6:51 AM 5:39 PM
Waxing Crescent, 25% visible
SPECI KAWM 130102Z AUTO 05003KT 1/4SM HZ CLR 05/M02 A3033 RMK AO2 T00501017 $

10-Day Weather Forecast

Almanac

Astronomy

Feb. 12, 2016 Rise Set
Actual Time
Civil Twilight
Nautical Twilight
Astronomical Twilight
Moon
Length of Visible Light
Length of Day
Tomorrow will be .
, % of the Moon is Illuminated

Today's Extremes

State Highs State Lows

Community

WunderPhotos

Upload Photos

1,892,455 photos uploaded!

WunderBlog® & News

Nearby

Air Quality

  Air Quality AQ Index Pollutant
Not available.

Snow Depth

Station Depth Elevation

Earthquake Activity

City Distance Mag. Time & Date
Minimum magnitude displayed is 2.5.

Coastal Water Temperatures

Place Temperature

Stations

Nearby Weather Stations

Station Location Temp. Windchill Dew Point Humidity Wind Precip. Elev Updated Type
                   

Watches & Warnings

There are currently no watches in effect.